sensor_id;sensor_type;location;lat;lon;timestamp;P1;durP1;ratioP1;P2;durP2;ratioP2
16270;SDS011;8243;49.048;8.396;2022-08-03T00:01:23;3.67;;;3.37;;
16270;SDS011;8243;49.048;8.396;2022-08-03T00:03:48;5.40;;;3.20;;
16270;SDS011;8243;49.048;8.396;2022-08-03T00:06:14;4.30;;;3.30;;
16270;SDS011;8243;49.048;8.396;2022-08-03T00:08:39;3.70;;;3.40;;
16270;SDS011;8243;49.048;8.396;2022-08-03T00:11:05;3.87;;;3.57;;
16270;SDS011;8243;49.048;8.396;2022-08-03T00:13:31;3.87;;;3.40;;
16270;SDS011;8243;49.048;8.396;2022-08-03T00:15:57;4.13;;;3.73;;
16270;SDS011;8243;49.048;8.396;2022-08-03T00:18:22;3.60;;;3.20;;
16270;SDS011;8243;49.048;8.396;2022-08-03T00:20:48;5.30;;;3.50;;
16270;SDS011;8243;49.048;8.396;2022-08-03T00:23:14;3.57;;;3.27;;
16270;SDS011;8243;49.048;8.396;2022-08-03T00:25:39;3.33;;;3.03;;
16270;SDS011;8243;49.048;8.396;2022-08-03T00:28:05;4.53;;;3.80;;
16270;SDS011;8243;49.048;8.396;2022-08-03T00:30:31;5.57;;;3.27;;
16270;SDS011;8243;49.048;8.396;2022-08-03T00:32:57;3.90;;;3.60;;
16270;SDS011;8243;49.048;8.396;2022-08-03T00:35:23;3.80;;;3.40;;
16270;SDS011;8243;49.048;8.396;2022-08-03T00:37:49;4.77;;;3.23;;
16270;SDS011;8243;49.048;8.396;2022-08-03T00:40:15;3.70;;;3.43;;
16270;SDS011;8243;49.048;8.396;2022-08-03T00:42:52;4.47;;;3.60;;
16270;SDS011;8243;49.048;8.396;2022-08-03T00:45:23;3.33;;;3.03;;
16270;SDS011;8243;49.048;8.396;2022-08-03T00:47:53;3.83;;;3.50;;
16270;SDS011;8243;49.048;8.396;2022-08-03T00:50:20;3.83;;;3.53;;
16270;SDS011;8243;49.048;8.396;2022-08-03T00:52:47;4.33;;;3.30;;
16270;SDS011;8243;49.048;8.396;2022-08-03T00:55:14;3.90;;;3.50;;
16270;SDS011;8243;49.048;8.396;2022-08-03T00:57:41;3.47;;;3.17;;
16270;SDS011;8243;49.048;8.396;2022-08-03T01:00:07;3.70;;;3.40;;
16270;SDS011;8243;49.048;8.396;2022-08-03T01:02:35;3.70;;;3.40;;
16270;SDS011;8243;49.048;8.396;2022-08-03T01:05:01;3.70;;;3.40;;
16270;SDS011;8243;49.048;8.396;2022-08-03T01:10:16;3.73;;;2.80;;
16270;SDS011;8243;49.048;8.396;2022-08-03T01:13:36;3.80;;;3.40;;
16270;SDS011;8243;49.048;8.396;2022-08-03T01:15:42;4.03;;;3.23;;
16270;SDS011;8243;49.048;8.396;2022-08-03T01:21:02;3.93;;;3.63;;
16270;SDS011;8243;49.048;8.396;2022-08-03T01:23:36;4.83;;;3.70;;
16270;SDS011;8243;49.048;8.396;2022-08-03T01:28:57;7.70;;;3.70;;
16270;SDS011;8243;49.048;8.396;2022-08-03T01:31:55;4.43;;;4.03;;
16270;SDS011;8243;49.048;8.396;2022-08-03T01:34:27;4.20;;;3.50;;
16270;SDS011;8243;49.048;8.396;2022-08-03T01:36:56;4.83;;;3.43;;
16270;SDS011;8243;49.048;8.396;2022-08-03T01:39:24;4.97;;;3.90;;
16270;SDS011;8243;49.048;8.396;2022-08-03T01:41:55;3.77;;;3.47;;
16270;SDS011;8243;49.048;8.396;2022-08-03T01:44:27;4.83;;;3.80;;
16270;SDS011;8243;49.048;8.396;2022-08-03T01:46:59;4.17;;;3.77;;
16270;SDS011;8243;49.048;8.396;2022-08-03T01:49:26;6.30;;;4.20;;
16270;SDS011;8243;49.048;8.396;2022-08-03T01:51:54;4.43;;;4.03;;
16270;SDS011;8243;49.048;8.396;2022-08-03T01:54:21;4.87;;;3.40;;
16270;SDS011;8243;49.048;8.396;2022-08-03T01:56:48;3.63;;;3.37;;
16270;SDS011;8243;49.048;8.396;2022-08-03T01:59:16;3.83;;;3.50;;
16270;SDS011;8243;49.048;8.396;2022-08-03T02:01:44;4.13;;;3.73;;
16270;SDS011;8243;49.048;8.396;2022-08-03T02:04:11;4.10;;;3.80;;
16270;SDS011;8243;49.048;8.396;2022-08-03T02:06:38;4.83;;;3.53;;
16270;SDS011;8243;49.048;8.396;2022-08-03T02:09:05;5.40;;;3.67;;
16270;SDS011;8243;49.048;8.396;2022-08-03T02:11:32;4.20;;;3.80;;
16270;SDS011;8243;49.048;8.396;2022-08-03T02:13:59;3.80;;;3.50;;
16270;SDS011;8243;49.048;8.396;2022-08-03T02:16:27;5.00;;;3.73;;
16270;SDS011;8243;49.048;8.396;2022-08-03T02:18:55;4.17;;;3.87;;
16270;SDS011;8243;49.048;8.396;2022-08-03T02:21:23;4.43;;;3.70;;
16270;SDS011;8243;49.048;8.396;2022-08-03T02:23:50;4.10;;;3.80;;
16270;SDS011;8243;49.048;8.396;2022-08-03T02:26:16;4.13;;;3.83;;
16270;SDS011;8243;49.048;8.396;2022-08-03T02:28:45;4.67;;;3.90;;
16270;SDS011;8243;49.048;8.396;2022-08-03T02:31:17;5.17;;;3.70;;
16270;SDS011;8243;49.048;8.396;2022-08-03T02:33:47;3.53;;;3.27;;
16270;SDS011;8243;49.048;8.396;2022-08-03T02:36:15;7.67;;;3.63;;
16270;SDS011;8243;49.048;8.396;2022-08-03T02:38:46;4.13;;;3.77;;
16270;SDS011;8243;49.048;8.396;2022-08-03T02:41:17;4.13;;;3.77;;
16270;SDS011;8243;49.048;8.396;2022-08-03T02:43:48;4.47;;;3.70;;
16270;SDS011;8243;49.048;8.396;2022-08-03T02:46:18;5.73;;;4.10;;
16270;SDS011;8243;49.048;8.396;2022-08-03T02:48:46;6.00;;;3.90;;
16270;SDS011;8243;49.048;8.396;2022-08-03T02:51:12;6.17;;;3.37;;
16270;SDS011;8243;49.048;8.396;2022-08-03T02:53:40;4.67;;;4.17;;
16270;SDS011;8243;49.048;8.396;2022-08-03T02:56:09;4.10;;;3.73;;
16270;SDS011;8243;49.048;8.396;2022-08-03T02:58:35;4.27;;;3.87;;
16270;SDS011;8243;49.048;8.396;2022-08-03T03:01:02;4.63;;;4.03;;
16270;SDS011;8243;49.048;8.396;2022-08-03T03:03:28;4.33;;;3.93;;
16270;SDS011;8243;49.048;8.396;2022-08-03T03:05:54;5.43;;;3.90;;
16270;SDS011;8243;49.048;8.396;2022-08-03T03:08:20;4.40;;;3.70;;
16270;SDS011;8243;49.048;8.396;2022-08-03T03:10:47;4.33;;;3.93;;
16270;SDS011;8243;49.048;8.396;2022-08-03T03:13:14;4.27;;;3.87;;
16270;SDS011;8243;49.048;8.396;2022-08-03T03:15:40;4.70;;;3.50;;
16270;SDS011;8243;49.048;8.396;2022-08-03T03:18:07;5.17;;;4.07;;
16270;SDS011;8243;49.048;8.396;2022-08-03T03:20:34;4.30;;;3.90;;
16270;SDS011;8243;49.048;8.396;2022-08-03T03:23:02;4.87;;;3.90;;
16270;SDS011;8243;49.048;8.396;2022-08-03T03:25:29;4.07;;;3.70;;
16270;SDS011;8243;49.048;8.396;2022-08-03T03:27:56;5.30;;;3.70;;
16270;SDS011;8243;49.048;8.396;2022-08-03T03:30:23;4.30;;;4.00;;
16270;SDS011;8243;49.048;8.396;2022-08-03T03:32:49;5.40;;;4.03;;
16270;SDS011;8243;49.048;8.396;2022-08-03T03:35:15;4.50;;;4.00;;
16270;SDS011;8243;49.048;8.396;2022-08-03T03:37:41;4.00;;;3.60;;
16270;SDS011;8243;49.048;8.396;2022-08-03T03:40:07;4.13;;;3.83;;
16270;SDS011;8243;49.048;8.396;2022-08-03T03:42:33;4.70;;;3.60;;
16270;SDS011;8243;49.048;8.396;2022-08-03T03:45:02;6.70;;;3.60;;
16270;SDS011;8243;49.048;8.396;2022-08-03T03:47:29;4.83;;;4.23;;
16270;SDS011;8243;49.048;8.396;2022-08-03T03:49:56;5.77;;;4.30;;
16270;SDS011;8243;49.048;8.396;2022-08-03T03:52:22;5.37;;;4.20;;
16270;SDS011;8243;49.048;8.396;2022-08-03T03:54:47;4.43;;;3.70;;
16270;SDS011;8243;49.048;8.396;2022-08-03T03:57:13;6.07;;;4.10;;
16270;SDS011;8243;49.048;8.396;2022-08-03T03:59:39;4.40;;;4.00;;
16270;SDS011;8243;49.048;8.396;2022-08-03T04:02:06;5.83;;;4.40;;
16270;SDS011;8243;49.048;8.396;2022-08-03T04:04:33;5.50;;;4.20;;
16270;SDS011;8243;49.048;8.396;2022-08-03T04:07:19;4.73;;;3.70;;
16270;SDS011;8243;49.048;8.396;2022-08-03T04:10:06;4.10;;;3.80;;
16270;SDS011;8243;49.048;8.396;2022-08-03T04:12:56;4.37;;;3.50;;
16270;SDS011;8243;49.048;8.396;2022-08-03T04:15:24;4.30;;;3.87;;
16270;SDS011;8243;49.048;8.396;2022-08-03T04:17:51;5.03;;;4.00;;
16270;SDS011;8243;49.048;8.396;2022-08-03T04:20:19;4.73;;;3.80;;
16270;SDS011;8243;49.048;8.396;2022-08-03T04:22:48;6.83;;;4.43;;
16270;SDS011;8243;49.048;8.396;2022-08-03T04:25:15;5.03;;;3.90;;
16270;SDS011;8243;49.048;8.396;2022-08-03T04:27:43;5.07;;;3.77;;
16270;SDS011;8243;49.048;8.396;2022-08-03T04:30:11;4.37;;;3.73;;
16270;SDS011;8243;49.048;8.396;2022-08-03T04:32:38;5.57;;;3.80;;
16270;SDS011;8243;49.048;8.396;2022-08-03T04:35:06;4.40;;;3.83;;
16270;SDS011;8243;49.048;8.396;2022-08-03T04:37:40;3.90;;;3.50;;
16270;SDS011;8243;49.048;8.396;2022-08-03T04:40:11;3.53;;;3.23;;
16270;SDS011;8243;49.048;8.396;2022-08-03T04:42:39;6.37;;;3.60;;
16270;SDS011;8243;49.048;8.396;2022-08-03T04:45:06;4.27;;;3.40;;
16270;SDS011;8243;49.048;8.396;2022-08-03T04:47:35;7.53;;;3.00;;
16270;SDS011;8243;49.048;8.396;2022-08-03T04:50:03;4.30;;;3.37;;
16270;SDS011;8243;49.048;8.396;2022-08-03T04:52:30;3.20;;;3.00;;
16270;SDS011;8243;49.048;8.396;2022-08-03T04:54:57;3.13;;;2.70;;
16270;SDS011;8243;49.048;8.396;2022-08-03T04:57:22;5.13;;;2.77;;
16270;SDS011;8243;49.048;8.396;2022-08-03T04:59:48;2.83;;;2.63;;
16270;SDS011;8243;49.048;8.396;2022-08-03T05:02:18;5.40;;;3.30;;
16270;SDS011;8243;49.048;8.396;2022-08-03T05:04:43;4.67;;;3.10;;
16270;SDS011;8243;49.048;8.396;2022-08-03T05:07:11;4.03;;;2.80;;
16270;SDS011;8243;49.048;8.396;2022-08-03T05:09:36;3.10;;;2.80;;
16270;SDS011;8243;49.048;8.396;2022-08-03T05:12:02;3.47;;;2.70;;
16270;SDS011;8243;49.048;8.396;2022-08-03T05:14:29;6.17;;;3.37;;
16270;SDS011;8243;49.048;8.396;2022-08-03T05:16:54;4.63;;;2.83;;
16270;SDS011;8243;49.048;8.396;2022-08-03T05:19:20;4.23;;;2.70;;
16270;SDS011;8243;49.048;8.396;2022-08-03T05:21:46;4.77;;;2.97;;
16270;SDS011;8243;49.048;8.396;2022-08-03T05:24:11;4.53;;;2.90;;
16270;SDS011;8243;49.048;8.396;2022-08-03T05:26:37;3.13;;;2.53;;
16270;SDS011;8243;49.048;8.396;2022-08-03T05:29:03;4.00;;;2.93;;
16270;SDS011;8243;49.048;8.396;2022-08-03T05:31:28;4.37;;;3.00;;
16270;SDS011;8243;49.048;8.396;2022-08-03T05:33:55;3.67;;;2.80;;
16270;SDS011;8243;49.048;8.396;2022-08-03T05:36:21;3.87;;;2.63;;
16270;SDS011;8243;49.048;8.396;2022-08-03T05:38:46;3.83;;;3.13;;
16270;SDS011;8243;49.048;8.396;2022-08-03T05:41:12;3.93;;;2.70;;
16270;SDS011;8243;49.048;8.396;2022-08-03T05:43:38;3.20;;;2.90;;
16270;SDS011;8243;49.048;8.396;2022-08-03T05:46:03;2.90;;;2.60;;
16270;SDS011;8243;49.048;8.396;2022-08-03T05:48:29;3.27;;;2.80;;
16270;SDS011;8243;49.048;8.396;2022-08-03T05:50:54;3.10;;;2.80;;
16270;SDS011;8243;49.048;8.396;2022-08-03T05:53:20;4.00;;;2.47;;
16270;SDS011;8243;49.048;8.396;2022-08-03T05:55:45;3.30;;;2.90;;
16270;SDS011;8243;49.048;8.396;2022-08-03T05:58:14;4.93;;;2.70;;
16270;SDS011;8243;49.048;8.396;2022-08-03T06:00:39;6.20;;;2.53;;
16270;SDS011;8243;49.048;8.396;2022-08-03T06:03:05;5.77;;;2.47;;
16270;SDS011;8243;49.048;8.396;2022-08-03T06:05:30;3.63;;;2.80;;
16270;SDS011;8243;49.048;8.396;2022-08-03T06:08:00;2.97;;;2.63;;
16270;SDS011;8243;49.048;8.396;2022-08-03T06:10:26;2.83;;;2.40;;
16270;SDS011;8243;49.048;8.396;2022-08-03T06:12:52;5.87;;;2.53;;
16270;SDS011;8243;49.048;8.396;2022-08-03T06:15:17;4.37;;;2.50;;
16270;SDS011;8243;49.048;8.396;2022-08-03T06:17:46;2.47;;;2.27;;
16270;SDS011;8243;49.048;8.396;2022-08-03T06:20:14;3.37;;;2.43;;
16270;SDS011;8243;49.048;8.396;2022-08-03T06:22:44;2.60;;;2.33;;
16270;SDS011;8243;49.048;8.396;2022-08-03T06:25:10;3.90;;;2.83;;
16270;SDS011;8243;49.048;8.396;2022-08-03T06:27:36;3.13;;;2.30;;
16270;SDS011;8243;49.048;8.396;2022-08-03T06:30:04;3.20;;;2.50;;
16270;SDS011;8243;49.048;8.396;2022-08-03T06:32:32;3.70;;;2.70;;
16270;SDS011;8243;49.048;8.396;2022-08-03T06:34:57;2.50;;;2.30;;
16270;SDS011;8243;49.048;8.396;2022-08-03T06:37:23;2.77;;;2.57;;
16270;SDS011;8243;49.048;8.396;2022-08-03T06:39:51;4.13;;;2.77;;
16270;SDS011;8243;49.048;8.396;2022-08-03T06:42:16;3.00;;;2.33;;
16270;SDS011;8243;49.048;8.396;2022-08-03T06:44:42;4.50;;;2.20;;
16270;SDS011;8243;49.048;8.396;2022-08-03T06:47:08;2.90;;;2.40;;
16270;SDS011;8243;49.048;8.396;2022-08-03T06:49:33;4.63;;;2.30;;
16270;SDS011;8243;49.048;8.396;2022-08-03T06:51:59;5.17;;;2.30;;
16270;SDS011;8243;49.048;8.396;2022-08-03T06:54:24;3.53;;;2.23;;
16270;SDS011;8243;49.048;8.396;2022-08-03T06:56:50;2.47;;;2.27;;
16270;SDS011;8243;49.048;8.396;2022-08-03T06:59:16;4.30;;;2.43;;
16270;SDS011;8243;49.048;8.396;2022-08-03T07:01:41;2.90;;;2.37;;
16270;SDS011;8243;49.048;8.396;2022-08-03T07:04:07;4.20;;;2.40;;
16270;SDS011;8243;49.048;8.396;2022-08-03T07:06:32;3.67;;;2.40;;
16270;SDS011;8243;49.048;8.396;2022-08-03T07:08:58;7.10;;;2.50;;
16270;SDS011;8243;49.048;8.396;2022-08-03T07:11:24;5.03;;;2.17;;
16270;SDS011;8243;49.048;8.396;2022-08-03T07:13:49;3.70;;;2.20;;
16270;SDS011;8243;49.048;8.396;2022-08-03T07:16:16;3.00;;;2.50;;
16270;SDS011;8243;49.048;8.396;2022-08-03T07:18:42;2.93;;;2.20;;
16270;SDS011;8243;49.048;8.396;2022-08-03T07:21:07;2.30;;;2.10;;
16270;SDS011;8243;49.048;8.396;2022-08-03T07:23:34;2.30;;;2.10;;
16270;SDS011;8243;49.048;8.396;2022-08-03T07:26:00;2.80;;;2.23;;
16270;SDS011;8243;49.048;8.396;2022-08-03T07:28:25;5.30;;;2.33;;
16270;SDS011;8243;49.048;8.396;2022-08-03T07:30:52;2.93;;;2.27;;
16270;SDS011;8243;49.048;8.396;2022-08-03T07:33:17;6.93;;;2.47;;
16270;SDS011;8243;49.048;8.396;2022-08-03T07:35:43;2.63;;;2.00;;
16270;SDS011;8243;49.048;8.396;2022-08-03T07:38:08;3.53;;;2.37;;
16270;SDS011;8243;49.048;8.396;2022-08-03T07:40:34;3.93;;;1.90;;
16270;SDS011;8243;49.048;8.396;2022-08-03T07:42:59;7.53;;;2.10;;
16270;SDS011;8243;49.048;8.396;2022-08-03T07:45:27;2.37;;;1.93;;
16270;SDS011;8243;49.048;8.396;2022-08-03T07:47:54;2.33;;;2.00;;
16270;SDS011;8243;49.048;8.396;2022-08-03T07:50:19;2.43;;;2.20;;
16270;SDS011;8243;49.048;8.396;2022-08-03T07:52:45;2.60;;;2.40;;
16270;SDS011;8243;49.048;8.396;2022-08-03T07:55:16;3.17;;;2.00;;
16270;SDS011;8243;49.048;8.396;2022-08-03T07:57:43;5.10;;;1.90;;
16270;SDS011;8243;49.048;8.396;2022-08-03T08:00:16;2.78;;;1.90;;
16270;SDS011;8243;49.048;8.396;2022-08-03T08:02:42;3.00;;;1.90;;
16270;SDS011;8243;49.048;8.396;2022-08-03T08:05:09;2.10;;;2.00;;
16270;SDS011;8243;49.048;8.396;2022-08-03T08:07:36;2.53;;;2.10;;
16270;SDS011;8243;49.048;8.396;2022-08-03T08:10:03;2.15;;;1.95;;
16270;SDS011;8243;49.048;8.396;2022-08-03T08:12:30;3.63;;;2.40;;
16270;SDS011;8243;49.048;8.396;2022-08-03T08:14:56;2.60;;;2.17;;
16270;SDS011;8243;49.048;8.396;2022-08-03T08:17:21;5.07;;;2.28;;
16270;SDS011;8243;49.048;8.396;2022-08-03T08:19:47;5.63;;;2.20;;
16270;SDS011;8243;49.048;8.396;2022-08-03T08:22:13;3.77;;;2.30;;
16270;SDS011;8243;49.048;8.396;2022-08-03T08:24:38;3.10;;;2.20;;
16270;SDS011;8243;49.048;8.396;2022-08-03T08:27:04;2.30;;;2.10;;
16270;SDS011;8243;49.048;8.396;2022-08-03T08:29:29;2.33;;;2.10;;
16270;SDS011;8243;49.048;8.396;2022-08-03T08:31:55;3.50;;;2.13;;
16270;SDS011;8243;49.048;8.396;2022-08-03T08:34:20;2.67;;;2.10;;
16270;SDS011;8243;49.048;8.396;2022-08-03T08:36:46;2.40;;;2.20;;
16270;SDS011;8243;49.048;8.396;2022-08-03T08:39:11;3.33;;;2.30;;
16270;SDS011;8243;49.048;8.396;2022-08-03T08:41:37;4.13;;;2.17;;
16270;SDS011;8243;49.048;8.396;2022-08-03T08:44:03;7.60;;;2.28;;
16270;SDS011;8243;49.048;8.396;2022-08-03T08:46:31;5.85;;;1.95;;
16270;SDS011;8243;49.048;8.396;2022-08-03T08:48:58;4.32;;;2.20;;
16270;SDS011;8243;49.048;8.396;2022-08-03T08:51:29;8.82;;;2.30;;
16270;SDS011;8243;49.048;8.396;2022-08-03T08:53:56;4.20;;;2.25;;
16270;SDS011;8243;49.048;8.396;2022-08-03T08:56:25;3.17;;;1.90;;
16270;SDS011;8243;49.048;8.396;2022-08-03T08:58:52;4.40;;;2.20;;
16270;SDS011;8243;49.048;8.396;2022-08-03T09:01:21;4.35;;;2.13;;
16270;SDS011;8243;49.048;8.396;2022-08-03T09:03:47;7.18;;;2.60;;
16270;SDS011;8243;49.048;8.396;2022-08-03T09:06:13;3.72;;;1.92;;
16270;SDS011;8243;49.048;8.396;2022-08-03T09:08:39;3.88;;;2.22;;
16270;SDS011;8243;49.048;8.396;2022-08-03T09:11:05;6.90;;;2.50;;
16270;SDS011;8243;49.048;8.396;2022-08-03T09:13:32;6.18;;;1.95;;
16270;SDS011;8243;49.048;8.396;2022-08-03T09:19:02;7.38;;;2.13;;
16270;SDS011;8243;49.048;8.396;2022-08-03T09:21:38;5.22;;;2.20;;
16270;SDS011;8243;49.048;8.396;2022-08-03T09:24:05;2.08;;;1.90;;
16270;SDS011;8243;49.048;8.396;2022-08-03T09:26:31;2.30;;;2.10;;
16270;SDS011;8243;49.048;8.396;2022-08-03T09:29:03;2.90;;;1.65;;
16270;SDS011;8243;49.048;8.396;2022-08-03T09:31:37;3.50;;;1.80;;
16270;SDS011;8243;49.048;8.396;2022-08-03T09:34:05;2.85;;;2.10;;
16270;SDS011;8243;49.048;8.396;2022-08-03T09:39:11;2.13;;;2.00;;
16270;SDS011;8243;49.048;8.396;2022-08-03T09:41:38;2.53;;;2.00;;
16270;SDS011;8243;49.048;8.396;2022-08-03T09:44:05;3.42;;;2.00;;
16270;SDS011;8243;49.048;8.396;2022-08-03T09:46:31;4.97;;;2.10;;
16270;SDS011;8243;49.048;8.396;2022-08-03T09:49:11;2.45;;;2.22;;
16270;SDS011;8243;49.048;8.396;2022-08-03T09:51:37;5.18;;;2.03;;
16270;SDS011;8243;49.048;8.396;2022-08-03T09:54:03;4.18;;;1.90;;
16270;SDS011;8243;49.048;8.396;2022-08-03T09:56:39;3.65;;;2.20;;
16270;SDS011;8243;49.048;8.396;2022-08-03T09:59:06;2.67;;;1.75;;
16270;SDS011;8243;49.048;8.396;2022-08-03T10:01:33;6.78;;;2.00;;
16270;SDS011;8243;49.048;8.396;2022-08-03T10:03:59;3.85;;;1.95;;
16270;SDS011;8243;49.048;8.396;2022-08-03T10:06:25;3.10;;;1.90;;
16270;SDS011;8243;49.048;8.396;2022-08-03T10:11:37;3.35;;;1.95;;
16270;SDS011;8243;49.048;8.396;2022-08-03T10:14:04;1.98;;;1.80;;
16270;SDS011;8243;49.048;8.396;2022-08-03T10:16:35;7.20;;;2.15;;
16270;SDS011;8243;49.048;8.396;2022-08-03T10:19:06;3.22;;;1.98;;
16270;SDS011;8243;49.048;8.396;2022-08-03T10:21:34;3.20;;;2.13;;
16270;SDS011;8243;49.048;8.396;2022-08-03T10:24:03;2.92;;;2.10;;
16270;SDS011;8243;49.048;8.396;2022-08-03T10:26:30;1.70;;;1.60;;
16270;SDS011;8243;49.048;8.396;2022-08-03T10:28:58;2.70;;;1.73;;
16270;SDS011;8243;49.048;8.396;2022-08-03T10:31:27;3.17;;;1.88;;
16270;SDS011;8243;49.048;8.396;2022-08-03T10:33:59;3.00;;;1.70;;
16270;SDS011;8243;49.048;8.396;2022-08-03T10:36:29;2.33;;;2.10;;
16270;SDS011;8243;49.048;8.396;2022-08-03T10:38:57;3.38;;;1.60;;
16270;SDS011;8243;49.048;8.396;2022-08-03T10:41:25;2.45;;;1.55;;
16270;SDS011;8243;49.048;8.396;2022-08-03T10:43:57;2.47;;;1.80;;
16270;SDS011;8243;49.048;8.396;2022-08-03T10:46:27;1.75;;;1.65;;
16270;SDS011;8243;49.048;8.396;2022-08-03T10:48:53;2.20;;;2.00;;
16270;SDS011;8243;49.048;8.396;2022-08-03T10:51:20;2.15;;;1.60;;
16270;SDS011;8243;49.048;8.396;2022-08-03T10:53:47;3.08;;;1.60;;
16270;SDS011;8243;49.048;8.396;2022-08-03T10:59:15;3.78;;;1.60;;
16270;SDS011;8243;49.048;8.396;2022-08-03T11:01:57;3.50;;;1.90;;
16270;SDS011;8243;49.048;8.396;2022-08-03T11:04:23;2.30;;;1.92;;
16270;SDS011;8243;49.048;8.396;2022-08-03T11:09:40;4.18;;;2.00;;
16270;SDS011;8243;49.048;8.396;2022-08-03T11:12:20;1.80;;;1.70;;
16270;SDS011;8243;49.048;8.396;2022-08-03T11:14:48;3.95;;;2.03;;
16270;SDS011;8243;49.048;8.396;2022-08-03T11:17:13;2.00;;;1.80;;
16270;SDS011;8243;49.048;8.396;2022-08-03T11:19:43;3.72;;;2.00;;
16270;SDS011;8243;49.048;8.396;2022-08-03T11:22:10;2.15;;;1.80;;
16270;SDS011;8243;49.048;8.396;2022-08-03T11:40:33;2.42;;;2.20;;
16270;SDS011;8243;49.048;8.396;2022-08-03T11:43:03;2.28;;;2.00;;
16270;SDS011;8243;49.048;8.396;2022-08-03T11:45:32;2.78;;;1.98;;
16270;SDS011;8243;49.048;8.396;2022-08-03T11:47:58;2.20;;;1.95;;
16270;SDS011;8243;49.048;8.396;2022-08-03T11:50:36;3.70;;;1.88;;
16270;SDS011;8243;49.048;8.396;2022-08-03T11:53:02;2.60;;;1.92;;
16270;SDS011;8243;49.048;8.396;2022-08-03T11:55:29;2.65;;;2.20;;
16270;SDS011;8243;49.048;8.396;2022-08-03T11:57:57;3.08;;;2.08;;
16270;SDS011;8243;49.048;8.396;2022-08-03T12:00:27;3.17;;;1.93;;
16270;SDS011;8243;49.048;8.396;2022-08-03T12:02:56;3.88;;;1.80;;
16270;SDS011;8243;49.048;8.396;2022-08-03T12:10:52;3.53;;;1.98;;
16270;SDS011;8243;49.048;8.396;2022-08-03T12:13:19;3.33;;;1.90;;
16270;SDS011;8243;49.048;8.396;2022-08-03T12:15:50;3.70;;;2.30;;
16270;SDS011;8243;49.048;8.396;2022-08-03T12:18:17;2.03;;;1.80;;
16270;SDS011;8243;49.048;8.396;2022-08-03T12:20:45;2.47;;;2.08;;
16270;SDS011;8243;49.048;8.396;2022-08-03T12:23:12;2.33;;;1.73;;
16270;SDS011;8243;49.048;8.396;2022-08-03T12:25:39;1.98;;;1.80;;
16270;SDS011;8243;49.048;8.396;2022-08-03T12:28:13;2.40;;;1.90;;
16270;SDS011;8243;49.048;8.396;2022-08-03T12:30:43;2.58;;;2.22;;
16270;SDS011;8243;49.048;8.396;2022-08-03T12:35:47;2.97;;;2.00;;
16270;SDS011;8243;49.048;8.396;2022-08-03T12:38:19;2.15;;;1.98;;
16270;SDS011;8243;49.048;8.396;2022-08-03T12:41:07;1.88;;;1.70;;
16270;SDS011;8243;49.048;8.396;2022-08-03T12:43:35;2.72;;;2.20;;
16270;SDS011;8243;49.048;8.396;2022-08-03T12:46:05;2.95;;;1.98;;
16270;SDS011;8243;49.048;8.396;2022-08-03T12:48:36;3.88;;;2.10;;
16270;SDS011;8243;49.048;8.396;2022-08-03T12:51:18;2.20;;;2.00;;
16270;SDS011;8243;49.048;8.396;2022-08-03T12:53:54;2.08;;;1.88;;
16270;SDS011;8243;49.048;8.396;2022-08-03T12:56:21;2.20;;;2.00;;
16270;SDS011;8243;49.048;8.396;2022-08-03T12:58:47;5.10;;;1.97;;
16270;SDS011;8243;49.048;8.396;2022-08-03T13:01:14;3.65;;;2.28;;
16270;SDS011;8243;49.048;8.396;2022-08-03T13:03:41;3.53;;;1.93;;
16270;SDS011;8243;49.048;8.396;2022-08-03T13:06:15;1.95;;;1.85;;
16270;SDS011;8243;49.048;8.396;2022-08-03T13:08:42;2.35;;;2.15;;
16270;SDS011;8243;49.048;8.396;2022-08-03T13:11:18;3.53;;;2.20;;
16270;SDS011;8243;49.048;8.396;2022-08-03T13:13:44;3.70;;;2.00;;
16270;SDS011;8243;49.048;8.396;2022-08-03T13:16:10;2.00;;;1.90;;
16270;SDS011;8243;49.048;8.396;2022-08-03T13:18:35;2.58;;;2.30;;
16270;SDS011;8243;49.048;8.396;2022-08-03T13:21:01;3.37;;;1.90;;
16270;SDS011;8243;49.048;8.396;2022-08-03T13:23:26;2.95;;;2.20;;
16270;SDS011;8243;49.048;8.396;2022-08-03T13:25:52;4.75;;;2.47;;
16270;SDS011;8243;49.048;8.396;2022-08-03T13:28:18;2.00;;;1.80;;
16270;SDS011;8243;49.048;8.396;2022-08-03T13:30:43;2.88;;;1.98;;
16270;SDS011;8243;49.048;8.396;2022-08-03T13:33:09;2.20;;;2.00;;
16270;SDS011;8243;49.048;8.396;2022-08-03T13:35:34;2.78;;;2.10;;
16270;SDS011;8243;49.048;8.396;2022-08-03T13:38:00;2.30;;;2.10;;
16270;SDS011;8243;49.048;8.396;2022-08-03T13:40:26;2.50;;;1.88;;
16270;SDS011;8243;49.048;8.396;2022-08-03T13:42:54;3.08;;;2.20;;
16270;SDS011;8243;49.048;8.396;2022-08-03T13:45:20;2.35;;;1.92;;
16270;SDS011;8243;49.048;8.396;2022-08-03T13:47:46;5.20;;;1.80;;
16270;SDS011;8243;49.048;8.396;2022-08-03T13:50:11;2.05;;;1.85;;
16270;SDS011;8243;49.048;8.396;2022-08-03T13:52:37;2.15;;;1.77;;
16270;SDS011;8243;49.048;8.396;2022-08-03T13:55:03;4.22;;;1.73;;
16270;SDS011;8243;49.048;8.396;2022-08-03T13:57:30;2.25;;;1.88;;
16270;SDS011;8243;49.048;8.396;2022-08-03T13:59:56;3.40;;;2.03;;
16270;SDS011;8243;49.048;8.396;2022-08-03T14:02:23;1.90;;;1.75;;
16270;SDS011;8243;49.048;8.396;2022-08-03T14:04:49;3.17;;;1.88;;
16270;SDS011;8243;49.048;8.396;2022-08-03T14:07:14;2.58;;;1.80;;
16270;SDS011;8243;49.048;8.396;2022-08-03T14:09:40;3.13;;;1.92;;
16270;SDS011;8243;49.048;8.396;2022-08-03T14:12:05;4.22;;;2.10;;
16270;SDS011;8243;49.048;8.396;2022-08-03T14:14:31;2.30;;;2.10;;
16270;SDS011;8243;49.048;8.396;2022-08-03T14:16:57;3.15;;;1.75;;
16270;SDS011;8243;49.048;8.396;2022-08-03T14:19:23;3.90;;;1.90;;
16270;SDS011;8243;49.048;8.396;2022-08-03T14:21:48;1.67;;;1.60;;
16270;SDS011;8243;49.048;8.396;2022-08-03T14:24:14;2.75;;;1.73;;
16270;SDS011;8243;49.048;8.396;2022-08-03T14:26:39;1.70;;;1.60;;
16270;SDS011;8243;49.048;8.396;2022-08-03T14:29:05;1.65;;;1.55;;
16270;SDS011;8243;49.048;8.396;2022-08-03T14:31:31;2.22;;;1.60;;
16270;SDS011;8243;49.048;8.396;2022-08-03T14:33:56;2.00;;;1.75;;
16270;SDS011;8243;49.048;8.396;2022-08-03T14:36:22;3.22;;;1.95;;
16270;SDS011;8243;49.048;8.396;2022-08-03T14:38:48;1.70;;;1.60;;
16270;SDS011;8243;49.048;8.396;2022-08-03T14:41:14;5.03;;;1.90;;
16270;SDS011;8243;49.048;8.396;2022-08-03T14:43:40;1.77;;;1.65;;
16270;SDS011;8243;49.048;8.396;2022-08-03T14:46:05;2.22;;;1.80;;
16270;SDS011;8243;49.048;8.396;2022-08-03T14:48:31;4.78;;;2.03;;
16270;SDS011;8243;49.048;8.396;2022-08-03T14:50:56;4.00;;;2.08;;
16270;SDS011;8243;49.048;8.396;2022-08-03T14:53:22;3.35;;;1.95;;
16270;SDS011;8243;49.048;8.396;2022-08-03T14:55:48;1.70;;;1.60;;
16270;SDS011;8243;49.048;8.396;2022-08-03T14:58:20;2.10;;;1.80;;
16270;SDS011;8243;49.048;8.396;2022-08-03T15:00:47;3.08;;;1.88;;
16270;SDS011;8243;49.048;8.396;2022-08-03T15:03:14;2.85;;;1.88;;
16270;SDS011;8243;49.048;8.396;2022-08-03T15:05:40;4.25;;;1.70;;
16270;SDS011;8243;49.048;8.396;2022-08-03T15:08:06;1.77;;;1.65;;
16270;SDS011;8243;49.048;8.396;2022-08-03T15:10:31;2.10;;;1.90;;
16270;SDS011;8243;49.048;8.396;2022-08-03T15:12:57;2.85;;;1.90;;
16270;SDS011;8243;49.048;8.396;2022-08-03T15:15:22;1.70;;;1.60;;
16270;SDS011;8243;49.048;8.396;2022-08-03T15:17:48;3.53;;;1.83;;
16270;SDS011;8243;49.048;8.396;2022-08-03T15:20:13;2.45;;;1.60;;
16270;SDS011;8243;49.048;8.396;2022-08-03T15:22:39;2.97;;;1.92;;
16270;SDS011;8243;49.048;8.396;2022-08-03T15:25:05;2.35;;;1.90;;
16270;SDS011;8243;49.048;8.396;2022-08-03T15:27:31;1.90;;;1.73;;
16270;SDS011;8243;49.048;8.396;2022-08-03T15:29:57;1.85;;;1.70;;
16270;SDS011;8243;49.048;8.396;2022-08-03T15:32:22;1.92;;;1.80;;
16270;SDS011;8243;49.048;8.396;2022-08-03T15:34:48;4.32;;;2.00;;
16270;SDS011;8243;49.048;8.396;2022-08-03T15:37:15;1.65;;;1.55;;
16270;SDS011;8243;49.048;8.396;2022-08-03T15:39:40;2.65;;;1.70;;
16270;SDS011;8243;49.048;8.396;2022-08-03T15:42:06;2.50;;;1.70;;
16270;SDS011;8243;49.048;8.396;2022-08-03T15:44:31;3.40;;;1.90;;
16270;SDS011;8243;49.048;8.396;2022-08-03T15:46:57;2.00;;;1.90;;
16270;SDS011;8243;49.048;8.396;2022-08-03T15:49:22;2.22;;;2.00;;